createdAt,value
2022-11-24T00:03:17.919Z,12.00
2022-11-24T00:07:22.972Z,12.60
2022-11-24T00:11:32.764Z,11.53
2022-11-24T00:15:36.109Z,13.80
2022-11-24T00:19:39.585Z,12.23
2022-11-24T00:23:44.616Z,15.50
2022-11-24T00:27:47.999Z,11.47
2022-11-24T00:31:51.407Z,11.97
2022-11-24T00:35:58.262Z,9.97
2022-11-24T00:40:03.052Z,11.13
2022-11-24T00:44:07.195Z,12.43
2022-11-24T00:48:10.612Z,13.00
2022-11-24T00:52:13.925Z,12.17
2022-11-24T00:56:18.709Z,10.83
2022-11-24T01:00:22.166Z,13.13
2022-11-24T01:04:25.630Z,10.47
2022-11-24T01:08:28.978Z,11.90
2022-11-24T01:12:33.739Z,11.17
2022-11-24T01:16:38.888Z,11.60
2022-11-24T01:20:42.273Z,9.63
2022-11-24T01:24:46.010Z,8.90
2022-11-24T01:28:54.433Z,9.63
2022-11-24T01:32:57.755Z,10.50
2022-11-24T01:37:01.359Z,8.80
2022-11-24T01:41:07.530Z,9.03
2022-11-24T01:45:41.885Z,9.77
2022-11-24T01:49:48.592Z,8.60
2022-11-24T01:53:57.034Z,8.70
2022-11-24T01:58:05.214Z,9.90
2022-11-24T02:02:10.798Z,9.40
2022-11-24T02:06:16.530Z,13.60
2022-11-24T02:10:20.050Z,10.07
2022-11-24T02:14:24.959Z,9.70
2022-11-24T02:18:30.035Z,8.70
2022-11-24T02:22:40.839Z,7.80
2022-11-24T02:26:47.950Z,10.27
2022-11-24T02:30:52.037Z,6.63
2022-11-24T02:35:02.602Z,9.20
2022-11-24T02:39:07.277Z,7.73
2022-11-24T02:43:16.221Z,8.33
2022-11-24T02:47:19.558Z,9.33
2022-11-24T02:51:23.195Z,6.67
2022-11-24T02:55:26.536Z,7.30
2022-11-24T02:59:31.541Z,9.37
2022-11-24T03:03:34.845Z,7.13
2022-11-24T03:07:38.231Z,7.80
2022-11-24T03:11:41.746Z,8.80
2022-11-24T03:15:46.483Z,9.07
2022-11-24T03:19:49.927Z,9.27
2022-11-24T03:23:58.773Z,9.93
2022-11-24T03:28:02.232Z,10.90
2022-11-24T03:32:07.086Z,10.77
2022-11-24T03:36:11.182Z,11.80
2022-11-24T03:40:14.792Z,9.90
2022-11-24T03:44:18.101Z,10.50
2022-11-24T03:48:22.903Z,11.07
2022-11-24T03:52:26.787Z,8.77
2022-11-24T03:56:30.163Z,8.80
2022-11-24T04:00:33.499Z,8.97
2022-11-24T04:04:38.258Z,8.23
2022-11-24T04:08:41.656Z,10.87
2022-11-24T04:12:47.663Z,10.50
2022-11-24T04:16:50.966Z,8.67
2022-11-24T04:20:55.680Z,8.23
2022-11-24T04:24:59.024Z,9.27
2022-11-24T04:29:02.311Z,9.30
2022-11-24T04:33:05.737Z,8.20
2022-11-24T04:37:10.643Z,8.03
2022-11-24T04:41:13.956Z,8.90
2022-11-24T04:45:17.442Z,8.50
2022-11-24T04:49:20.816Z,8.30
2022-11-24T04:53:25.514Z,8.60
2022-11-24T04:57:28.873Z,8.10
2022-11-24T05:01:35.595Z,9.67
2022-11-24T05:05:38.948Z,10.47
2022-11-24T05:09:59.534Z,8.80
2022-11-24T05:14:03.189Z,9.70
2022-11-24T05:18:07.283Z,8.30
2022-11-24T05:22:10.509Z,11.07
2022-11-24T05:26:15.341Z,10.10
2022-11-24T05:30:18.851Z,9.50
2022-11-24T05:34:22.297Z,9.87
2022-11-24T05:38:26.594Z,9.00
2022-11-24T05:42:47.168Z,9.37
2022-11-24T05:46:51.021Z,9.20
2022-11-24T05:50:58.212Z,11.43
2022-11-24T05:55:01.485Z,10.03
2022-11-24T05:59:09.752Z,9.80
2022-11-24T06:03:13.785Z,10.83
2022-11-24T06:07:17.231Z,13.87
2022-11-24T06:11:20.498Z,11.10
2022-11-24T06:15:27.102Z,10.87
2022-11-24T06:19:42.187Z,11.93
2022-11-24T06:23:49.845Z,10.90
2022-11-24T06:27:54.052Z,13.20
2022-11-24T06:31:58.984Z,11.23
2022-11-24T06:36:04.772Z,11.53
2022-11-24T06:40:10.259Z,11.77
2022-11-24T06:44:15.702Z,11.10
2022-11-24T06:48:20.781Z,12.43
2022-11-24T06:52:25.203Z,11.80
2022-11-24T06:56:28.797Z,12.03
2022-11-24T07:00:32.898Z,13.60
2022-11-24T07:04:37.743Z,13.13
2022-11-24T07:08:41.149Z,13.30
2022-11-24T07:12:45.747Z,15.60
2022-11-24T07:16:49.075Z,12.60
2022-11-24T07:20:53.787Z,13.90
2022-11-24T07:24:57.123Z,13.63
2022-11-24T07:29:00.516Z,12.63
2022-11-24T07:33:04.610Z,11.10
2022-11-24T07:37:09.361Z,12.13
2022-11-24T07:41:14.101Z,12.20
2022-11-24T07:45:18.628Z,14.70
2022-11-24T07:49:21.914Z,14.03
2022-11-24T07:53:26.775Z,13.97
2022-11-24T07:57:30.150Z,13.43
2022-11-24T08:01:33.650Z,12.87
2022-11-24T08:05:44.665Z,11.10
2022-11-24T08:10:02.014Z,14.03
2022-11-24T08:14:05.373Z,13.00
2022-11-24T08:18:08.869Z,13.73
2022-11-24T08:22:12.687Z,12.87
2022-11-24T08:26:19.499Z,14.30
2022-11-24T08:30:22.948Z,14.80
2022-11-24T08:34:29.744Z,18.17
2022-11-24T08:38:33.425Z,17.37
2022-11-24T08:42:38.248Z,15.73
2022-11-24T08:46:41.623Z,13.90
2022-11-24T08:50:45.033Z,22.87
2022-11-24T08:54:48.515Z,16.07
2022-11-24T08:58:53.362Z,16.57
2022-11-24T09:02:57.948Z,16.13
2022-11-24T09:07:01.308Z,16.70
2022-11-24T09:11:06.781Z,14.97
2022-11-24T09:15:12.667Z,14.67
2022-11-24T09:19:17.599Z,16.13
2022-11-24T09:23:21.140Z,15.87
2022-11-24T09:27:24.580Z,14.37
2022-11-24T09:31:31.474Z,12.13
2022-11-24T09:35:37.885Z,11.43
2022-11-24T09:39:41.527Z,11.53
2022-11-24T09:43:49.967Z,9.70
2022-11-24T09:48:03.733Z,10.83
2022-11-24T09:52:15.096Z,11.27
2022-11-24T09:56:23.169Z,9.90
2022-11-24T10:00:30.281Z,8.90
2022-11-24T10:04:40.659Z,5.20
2022-11-24T10:09:15.194Z,4.80
2022-11-24T10:13:39.452Z,3.30
2022-11-24T10:17:57.729Z,3.73
2022-11-24T10:22:19.741Z,3.47
2022-11-24T10:26:34.313Z,2.27
2022-11-24T10:30:38.505Z,3.23
2022-11-24T10:34:45.154Z,2.40
2022-11-24T10:38:58.179Z,3.30
2022-11-24T10:43:01.860Z,2.70
2022-11-24T10:47:05.325Z,2.37
2022-11-24T10:51:45.249Z,3.00
2022-11-24T10:56:04.773Z,3.30
2022-11-24T11:00:31.867Z,3.37
2022-11-24T11:04:36.765Z,4.10
2022-11-24T11:08:40.341Z,4.30
2022-11-24T11:12:45.815Z,4.60
2022-11-24T11:16:54.932Z,4.80
2022-11-24T11:21:02.032Z,3.70
2022-11-24T11:25:09.062Z,4.03
2022-11-24T11:34:07.367Z,3.03
2022-11-24T11:38:13.940Z,3.30
2022-11-24T11:42:53.883Z,4.23
2022-11-24T11:46:49.333Z,6.00
2022-11-24T11:55:51.253Z,3.10
2022-11-24T12:00:05.718Z,2.90
2022-11-24T12:04:21.763Z,3.27
2022-11-24T12:09:11.658Z,3.63
2022-11-24T12:13:36.734Z,5.70
2022-11-24T12:17:44.537Z,7.73
2022-11-24T12:22:01.099Z,6.10
2022-11-24T12:26:14.251Z,6.40
2022-11-24T12:30:19.435Z,6.10
2022-11-24T12:34:35.975Z,4.60
2022-11-24T12:38:54.560Z,2.30
2022-11-24T12:43:05.616Z,3.63
2022-11-24T12:47:16.524Z,3.37
2022-11-24T12:51:22.157Z,2.80
2022-11-24T12:55:30.054Z,2.50
2022-11-24T12:59:40.981Z,2.37
2022-11-24T13:03:55.743Z,2.43
2022-11-24T13:08:01.678Z,2.03
2022-11-24T13:12:13.671Z,2.60
2022-11-24T13:20:41.955Z,1.70
2022-11-24T13:24:46.118Z,2.80
2022-11-24T13:29:09.274Z,2.20
2022-11-24T13:33:33.656Z,1.70
2022-11-24T13:37:51.859Z,1.80
2022-11-24T13:42:04.160Z,1.73
2022-11-24T13:46:11.491Z,1.60
2022-11-24T13:50:23.462Z,1.60
2022-11-24T13:54:30.178Z,2.10
2022-11-24T13:58:38.348Z,2.30
2022-11-24T14:02:45.879Z,4.87
2022-11-24T14:07:01.104Z,2.90
2022-11-24T14:11:15.347Z,2.10
2022-11-24T14:15:24.660Z,2.13
2022-11-24T14:19:31.023Z,2.70
2022-11-24T14:23:35.718Z,2.60
2022-11-24T14:27:40.393Z,3.50
2022-11-24T14:31:44.187Z,2.77
2022-11-24T14:35:51.293Z,2.80
2022-11-24T14:39:54.842Z,2.67
2022-11-24T14:44:14.317Z,3.03
2022-11-24T14:48:19.156Z,2.97
2022-11-24T14:52:26.216Z,2.90
2022-11-24T14:56:30.996Z,3.50
2022-11-24T15:00:35.456Z,3.70
2022-11-24T15:05:05.360Z,3.20
2022-11-24T15:09:22.420Z,2.63
2022-11-24T15:13:27.204Z,3.40
2022-11-24T15:17:31.305Z,2.10
2022-11-24T15:21:36.225Z,3.43
2022-11-24T15:25:41.061Z,3.40
2022-11-24T15:29:45.472Z,2.53
2022-11-24T15:33:49.910Z,2.43
2022-11-24T15:38:12.164Z,3.60
2022-11-24T15:43:06.496Z,4.03
2022-11-24T15:47:10.698Z,3.60
2022-11-24T15:51:25.374Z,4.37
2022-11-24T15:55:39.706Z,4.07
2022-11-24T15:59:44.555Z,4.20
2022-11-24T16:03:48.988Z,5.30
2022-11-24T16:07:52.789Z,4.27
2022-11-24T16:11:56.365Z,4.40
2022-11-24T16:16:01.225Z,4.73
2022-11-24T16:20:05.143Z,5.77
2022-11-24T16:24:09.142Z,5.50
2022-11-24T16:28:13.029Z,5.03
2022-11-24T16:32:18.179Z,6.40
2022-11-24T16:36:21.471Z,5.10
2022-11-24T16:40:24.942Z,4.70
2022-11-24T16:44:29.013Z,5.37
2022-11-24T16:48:37.478Z,6.47
2022-11-24T16:53:07.113Z,6.60
2022-11-24T16:57:14.936Z,6.10
2022-11-24T17:01:19.304Z,7.73
2022-11-24T17:05:25.072Z,10.20
2022-11-24T17:09:30.610Z,14.73
2022-11-24T17:13:35.220Z,15.27
2022-11-24T17:17:55.156Z,13.43
2022-11-24T17:22:05.131Z,10.33
2022-11-24T17:26:12.291Z,9.47
2022-11-24T17:30:18.088Z,7.67
2022-11-24T17:34:22.426Z,8.00
2022-11-24T17:38:32.324Z,7.57
2022-11-24T17:42:37.337Z,7.40
2022-11-24T17:46:42.089Z,8.13
2022-11-24T17:50:50.509Z,8.67
2022-11-24T17:54:56.471Z,9.30
2022-11-24T17:59:02.234Z,10.07
2022-11-24T18:03:07.159Z,8.57
2022-11-24T18:07:11.937Z,8.73
2022-11-24T18:11:20.308Z,9.87
2022-11-24T18:15:24.237Z,9.20
2022-11-24T18:19:28.598Z,9.90
2022-11-24T18:23:36.487Z,9.20
2022-11-24T18:27:43.115Z,8.80
2022-11-24T18:31:47.741Z,9.47
2022-11-24T18:35:59.076Z,9.60
2022-11-24T18:40:04.637Z,8.73
2022-11-24T18:44:10.935Z,7.90
2022-11-24T18:48:15.744Z,8.60
2022-11-24T18:52:23.538Z,8.27
2022-11-24T18:56:34.780Z,8.80
2022-11-24T19:00:48.207Z,10.90
2022-11-24T19:04:54.610Z,11.73
2022-11-24T19:09:07.019Z,13.50
2022-11-24T19:13:16.774Z,13.93
2022-11-24T19:17:39.474Z,14.23
2022-11-24T19:21:48.196Z,13.60
2022-11-24T19:25:58.666Z,13.03
2022-11-24T19:30:08.552Z,12.50
2022-11-24T19:34:18.514Z,13.03
2022-11-24T19:38:29.733Z,11.40
2022-11-24T19:42:40.872Z,10.70
2022-11-24T19:46:45.064Z,11.67
2022-11-24T19:50:52.943Z,11.27
2022-11-24T19:55:00.425Z,10.00
2022-11-24T19:59:09.663Z,9.90
2022-11-24T20:03:14.621Z,10.97
2022-11-24T20:07:20.857Z,11.10
2022-11-24T20:11:26.229Z,10.33
2022-11-24T20:15:31.358Z,10.53
2022-11-24T20:19:39.600Z,12.90
2022-11-24T20:23:46.892Z,12.77
2022-11-24T20:27:51.166Z,10.97
2022-11-24T20:31:57.796Z,12.40
2022-11-24T20:36:09.710Z,11.33
2022-11-24T20:40:17.806Z,9.50
2022-11-24T20:44:23.068Z,9.63
2022-11-24T20:48:28.077Z,9.67
2022-11-24T20:52:34.416Z,9.27
2022-11-24T20:56:42.926Z,7.90
2022-11-24T21:00:47.650Z,10.17
2022-11-24T21:04:51.838Z,10.53
2022-11-24T21:09:02.008Z,12.20
2022-11-24T21:13:09.225Z,10.03
2022-11-24T21:17:17.396Z,10.37
2022-11-24T21:21:22.772Z,9.10
2022-11-24T21:25:28.458Z,8.63
2022-11-24T21:29:33.146Z,7.97
2022-11-24T21:33:40.829Z,8.63
2022-11-24T21:37:44.394Z,8.93
2022-11-24T21:41:49.030Z,8.80
2022-11-24T21:45:53.789Z,6.30
2022-11-24T21:49:57.071Z,7.77
2022-11-24T21:54:00.454Z,6.53
2022-11-24T21:58:07.260Z,4.57
2022-11-24T22:02:13.622Z,4.27
2022-11-24T22:06:19.260Z,4.63
2022-11-24T22:10:22.529Z,3.23
2022-11-24T22:14:25.827Z,4.50
2022-11-24T22:18:34.136Z,4.77
2022-11-24T22:22:37.401Z,5.60
2022-11-24T22:26:40.717Z,5.27
2022-11-24T22:30:44.011Z,5.30
2022-11-24T22:34:48.789Z,3.70
2022-11-24T22:38:55.475Z,4.50
2022-11-24T22:42:59.643Z,6.33
2022-11-24T22:47:02.953Z,6.47
2022-11-24T22:51:10.206Z,7.50
2022-11-24T22:55:13.495Z,4.30
2022-11-24T22:59:16.825Z,3.03
2022-11-24T23:03:20.157Z,3.20
2022-11-24T23:07:24.987Z,4.10
2022-11-24T23:11:36.312Z,4.70
2022-11-24T23:15:40.860Z,5.20
2022-11-24T23:19:44.143Z,3.27
2022-11-24T23:23:49.991Z,4.20
2022-11-24T23:27:53.250Z,4.00
2022-11-24T23:31:56.567Z,4.87
2022-11-24T23:36:02.972Z,5.23
2022-11-24T23:40:09.395Z,3.90
2022-11-24T23:44:12.686Z,5.07
2022-11-24T23:48:15.912Z,6.27
2022-11-24T23:52:19.216Z,6.10
2022-11-24T23:56:25.434Z,7.20
